createdAt,value
2022-11-23T00:00:47.620Z,32.27
2022-11-23T00:03:18.089Z,33.57
2022-11-23T00:05:47.528Z,34.30
2022-11-23T00:08:16.849Z,36.03
2022-11-23T00:10:46.834Z,32.60
2022-11-23T00:13:15.857Z,35.07
2022-11-23T00:15:45.087Z,32.27
2022-11-23T00:18:14.082Z,32.13
2022-11-23T00:20:45.086Z,32.23
2022-11-23T00:23:14.891Z,33.63
2022-11-23T00:25:46.711Z,32.87
2022-11-23T00:28:16.047Z,34.70
2022-11-23T00:30:51.695Z,33.03
2022-11-23T00:33:21.427Z,32.90
2022-11-23T00:36:01.607Z,32.57
2022-11-23T00:38:34.757Z,35.83
2022-11-23T00:41:06.578Z,36.07
2022-11-23T00:43:37.056Z,32.63
2022-11-23T00:46:11.398Z,34.20
2022-11-23T00:48:44.170Z,34.23
2022-11-23T00:51:18.661Z,33.77
2022-11-23T00:53:48.387Z,30.63
2022-11-23T00:56:17.524Z,34.00
2022-11-23T00:58:50.623Z,34.93
2022-11-23T01:01:21.769Z,35.43
2022-11-23T01:03:53.353Z,37.07
2022-11-23T01:06:26.055Z,38.40
2022-11-23T01:08:56.499Z,36.93
2022-11-23T01:11:27.806Z,37.53
2022-11-23T01:14:00.612Z,36.10
2022-11-23T01:16:31.870Z,36.10
2022-11-23T01:19:03.803Z,37.53
2022-11-23T01:21:35.696Z,37.20
2022-11-23T01:24:09.667Z,35.50
2022-11-23T01:26:41.010Z,37.07
2022-11-23T01:29:10.536Z,37.90
2022-11-23T01:31:46.077Z,38.57
2022-11-23T01:34:17.683Z,36.33
2022-11-23T01:36:48.970Z,36.53
2022-11-23T01:39:18.557Z,38.20
2022-11-23T01:41:49.116Z,40.40
2022-11-23T01:44:30.921Z,37.43
2022-11-23T01:47:02.369Z,36.93
2022-11-23T01:49:35.292Z,39.13
2022-11-23T01:52:08.931Z,35.40
2022-11-23T01:54:41.004Z,38.37
2022-11-23T01:57:21.088Z,35.27
2022-11-23T01:59:51.137Z,35.50
2022-11-23T02:02:20.517Z,37.10
2022-11-23T02:04:54.877Z,35.30
2022-11-23T02:07:27.590Z,37.00
2022-11-23T02:09:59.344Z,36.70
2022-11-23T02:12:30.402Z,35.90
2022-11-23T02:15:00.189Z,36.00
2022-11-23T02:17:29.522Z,36.40
2022-11-23T02:20:05.480Z,37.03
2022-11-23T02:22:45.157Z,38.27
2022-11-23T02:25:21.437Z,36.93
2022-11-23T02:27:52.740Z,33.70
2022-11-23T02:30:21.694Z,38.60
2022-11-23T02:32:54.146Z,37.20
2022-11-23T02:35:22.917Z,38.07
2022-11-23T02:37:53.560Z,38.93
2022-11-23T02:40:28.761Z,39.70
2022-11-23T02:42:59.783Z,39.90
2022-11-23T02:45:38.287Z,38.10
2022-11-23T02:48:07.876Z,38.97
2022-11-23T02:50:40.238Z,36.57
2022-11-23T02:53:09.356Z,38.17
2022-11-23T02:55:38.616Z,37.10
2022-11-23T02:58:10.212Z,37.43
2022-11-23T03:00:39.902Z,35.93
2022-11-23T03:03:09.028Z,38.70
2022-11-23T03:05:37.905Z,37.00
2022-11-23T03:08:08.920Z,35.27
2022-11-23T03:10:41.061Z,35.27
2022-11-23T03:13:12.539Z,35.67
2022-11-23T03:15:42.969Z,36.97
2022-11-23T03:18:12.619Z,36.17
2022-11-23T03:20:41.853Z,34.83
2022-11-23T03:23:10.947Z,34.93
2022-11-23T03:25:41.156Z,36.43
2022-11-23T03:28:12.720Z,37.90
2022-11-23T03:30:42.037Z,36.70
2022-11-23T03:33:12.938Z,36.17
2022-11-23T03:35:42.304Z,36.07
2022-11-23T03:38:23.263Z,36.20
2022-11-23T03:40:53.846Z,34.27
2022-11-23T03:43:44.514Z,33.80
2022-11-23T03:46:13.361Z,37.07
2022-11-23T03:48:42.070Z,36.20
2022-11-23T03:51:11.561Z,38.00
2022-11-23T03:53:41.708Z,35.40
2022-11-23T03:56:11.405Z,35.77
2022-11-23T03:58:46.691Z,35.80
2022-11-23T04:01:17.340Z,34.47
2022-11-23T04:03:52.484Z,37.37
2022-11-23T04:06:26.903Z,34.43
2022-11-23T04:09:03.258Z,36.30
2022-11-23T04:11:58.843Z,37.37
2022-11-23T04:14:29.444Z,36.30
2022-11-23T04:16:59.064Z,37.73
2022-11-23T04:19:29.341Z,36.00
2022-11-23T04:21:58.253Z,36.17
2022-11-23T04:24:29.227Z,36.43
2022-11-23T04:27:07.673Z,37.63
2022-11-23T04:29:38.819Z,37.20
2022-11-23T04:32:09.350Z,34.60
2022-11-23T04:34:40.652Z,35.80
2022-11-23T04:37:13.493Z,36.27
2022-11-23T04:39:45.027Z,36.97
2022-11-23T04:42:20.454Z,34.73
2022-11-23T04:44:59.000Z,37.10
2022-11-23T04:47:28.777Z,35.20
2022-11-23T04:50:01.793Z,35.53
2022-11-23T04:52:31.500Z,37.47
2022-11-23T04:55:03.559Z,36.33
2022-11-23T04:57:34.470Z,34.53
2022-11-23T05:00:06.489Z,34.47
2022-11-23T05:02:38.795Z,33.80
2022-11-23T05:05:23.140Z,34.37
2022-11-23T05:07:52.463Z,34.83
2022-11-23T05:10:24.842Z,32.50
2022-11-23T05:12:58.341Z,32.97
2022-11-23T05:15:29.657Z,33.13
2022-11-23T05:18:03.653Z,33.27
2022-11-23T05:20:32.660Z,34.70
2022-11-23T05:23:02.134Z,34.50
2022-11-23T05:25:34.198Z,34.83
2022-11-23T05:28:30.025Z,35.13
2022-11-23T05:30:57.639Z,37.10
2022-11-23T05:33:28.502Z,36.70
2022-11-23T05:35:57.965Z,36.60
2022-11-23T05:38:40.028Z,36.17
2022-11-23T05:41:16.197Z,38.03
2022-11-23T05:43:46.849Z,39.10
2022-11-23T05:46:22.779Z,37.47
2022-11-23T05:48:51.900Z,37.73
2022-11-23T05:51:20.717Z,38.13
2022-11-23T05:53:52.642Z,40.07
2022-11-23T05:56:32.073Z,38.90
2022-11-23T05:59:09.359Z,38.60
2022-11-23T06:01:43.520Z,40.87
2022-11-23T06:04:16.143Z,39.53
2022-11-23T06:06:47.778Z,37.47
2022-11-23T06:09:17.604Z,38.10
2022-11-23T06:11:48.779Z,38.47
2022-11-23T06:14:22.238Z,38.90
2022-11-23T06:16:55.139Z,37.63
2022-11-23T06:19:41.214Z,37.93
2022-11-23T06:22:11.699Z,36.93
2022-11-23T06:24:47.353Z,39.93
2022-11-23T06:27:37.932Z,38.67
2022-11-23T06:30:19.799Z,38.23
2022-11-23T06:32:52.092Z,36.40
2022-11-23T06:35:23.548Z,38.63
2022-11-23T06:37:54.884Z,37.63
2022-11-23T06:40:26.637Z,37.83
2022-11-23T06:43:01.552Z,37.00
2022-11-23T06:45:42.128Z,38.40
2022-11-23T06:48:18.568Z,38.97
2022-11-23T06:50:49.808Z,37.93
2022-11-23T06:53:21.256Z,37.70
2022-11-23T06:55:57.286Z,38.33
2022-11-23T06:58:28.046Z,38.47
2022-11-23T07:01:01.509Z,38.27
2022-11-23T07:03:37.399Z,38.53
2022-11-23T07:06:17.037Z,39.40
2022-11-23T07:08:48.301Z,38.03
2022-11-23T07:11:29.930Z,38.83
2022-11-23T07:13:59.101Z,36.80
2022-11-23T07:16:30.803Z,29.97
2022-11-23T07:19:02.642Z,38.47
2022-11-23T07:21:32.022Z,36.77
2022-11-23T07:24:00.612Z,37.93
2022-11-23T07:26:31.083Z,39.07
2022-11-23T07:29:03.108Z,39.97
2022-11-23T07:31:34.905Z,38.57
2022-11-23T07:34:09.707Z,38.90
2022-11-23T07:36:39.565Z,40.03
2022-11-23T07:39:12.582Z,37.57
2022-11-23T07:41:41.665Z,39.37
2022-11-23T07:44:23.721Z,40.33
2022-11-23T07:46:55.837Z,40.00
2022-11-23T07:49:26.922Z,40.37
2022-11-23T07:51:57.451Z,40.87
2022-11-23T07:54:26.812Z,41.20
2022-11-23T07:56:56.529Z,39.73
2022-11-23T07:59:25.610Z,39.70
2022-11-23T08:01:58.427Z,40.50
2022-11-23T08:04:30.848Z,40.03
2022-11-23T08:07:03.138Z,39.67
2022-11-23T08:09:33.242Z,38.37
2022-11-23T08:12:02.654Z,40.00
2022-11-23T08:14:32.404Z,39.27
2022-11-23T08:17:01.764Z,39.70
2022-11-23T08:19:32.832Z,39.70
2022-11-23T08:22:03.316Z,39.67
2022-11-23T08:24:32.382Z,38.23
2022-11-23T08:27:02.952Z,38.73
2022-11-23T08:29:32.176Z,38.20
2022-11-23T08:32:02.457Z,38.40
2022-11-23T08:34:34.142Z,38.30
2022-11-23T08:37:03.909Z,38.87
2022-11-23T08:39:32.936Z,37.40
2022-11-23T08:42:03.454Z,38.37
2022-11-23T08:44:32.857Z,37.97
2022-11-23T08:47:03.497Z,37.97
2022-11-23T08:49:34.892Z,37.13
2022-11-23T08:52:04.888Z,37.23
2022-11-23T08:54:35.426Z,36.07
2022-11-23T08:57:05.168Z,36.57
2022-11-23T08:59:36.036Z,32.60
2022-11-23T09:02:05.485Z,32.03
2022-11-23T09:04:38.333Z,32.23
2022-11-23T09:07:09.704Z,32.83
2022-11-23T09:09:56.455Z,32.27
2022-11-23T09:12:31.925Z,31.87
2022-11-23T09:15:04.047Z,28.20
2022-11-23T09:17:36.072Z,29.73
2022-11-23T09:20:13.298Z,29.83
2022-11-23T09:22:44.130Z,28.27
2022-11-23T09:25:14.401Z,27.93
2022-11-23T09:27:43.970Z,27.97
2022-11-23T09:30:15.101Z,28.07
2022-11-23T09:32:44.978Z,28.77
2022-11-23T09:35:16.716Z,27.33
2022-11-23T09:37:48.390Z,28.00
2022-11-23T09:40:18.930Z,27.27
2022-11-23T09:42:59.612Z,26.37
2022-11-23T09:45:37.356Z,25.83
2022-11-23T09:48:32.180Z,25.77
2022-11-23T09:51:08.483Z,26.57
2022-11-23T09:53:42.954Z,25.37
2022-11-23T09:56:18.668Z,25.77
2022-11-23T09:58:49.250Z,25.37
2022-11-23T10:01:19.452Z,24.27
2022-11-23T10:03:50.698Z,26.53
2022-11-23T10:06:24.578Z,26.73
2022-11-23T10:09:07.087Z,25.40
2022-11-23T10:11:57.827Z,25.50
2022-11-23T10:14:44.736Z,27.67
2022-11-23T10:17:25.322Z,25.57
2022-11-23T10:20:09.705Z,24.43
2022-11-23T10:22:47.975Z,24.60
2022-11-23T10:25:19.649Z,24.70
2022-11-23T10:27:52.132Z,22.67
2022-11-23T10:30:22.870Z,22.93
2022-11-23T10:32:57.569Z,22.83
2022-11-23T10:35:31.825Z,21.60
2022-11-23T10:38:18.697Z,22.83
2022-11-23T10:40:56.514Z,22.97
2022-11-23T10:43:30.985Z,20.10
2022-11-23T10:46:26.779Z,22.63
2022-11-23T10:48:57.806Z,22.47
2022-11-23T10:51:37.240Z,20.80
2022-11-23T10:54:21.874Z,21.10
2022-11-23T10:56:53.567Z,20.07
2022-11-23T10:59:37.690Z,20.50
2022-11-23T11:02:20.963Z,21.37
2022-11-23T11:04:58.533Z,20.63
2022-11-23T11:07:31.211Z,20.40
2022-11-23T11:10:04.024Z,19.17
2022-11-23T11:12:37.188Z,20.63
2022-11-23T11:15:18.416Z,19.20
2022-11-23T11:17:59.230Z,20.83
2022-11-23T11:20:38.682Z,17.70
2022-11-23T11:23:20.551Z,20.27
2022-11-23T11:26:04.545Z,21.33
2022-11-23T11:28:38.668Z,20.00
2022-11-23T11:31:52.472Z,20.73
2022-11-23T11:34:29.278Z,19.87
2022-11-23T11:37:04.191Z,19.23
2022-11-23T11:39:40.824Z,19.97
2022-11-23T11:42:20.130Z,20.43
2022-11-23T11:44:52.142Z,20.40
2022-11-23T11:47:30.702Z,20.13
2022-11-23T11:50:03.308Z,19.90
2022-11-23T11:52:38.664Z,21.37
2022-11-23T11:55:19.642Z,20.00
2022-11-23T11:57:59.099Z,20.17
2022-11-23T12:00:32.361Z,20.63
2022-11-23T12:03:12.487Z,21.87
2022-11-23T12:05:48.504Z,20.77
2022-11-23T12:08:26.653Z,23.67
2022-11-23T12:10:59.392Z,22.77
2022-11-23T12:13:35.710Z,23.57
2022-11-23T12:16:12.857Z,24.60
2022-11-23T12:19:08.137Z,24.73
2022-11-23T12:22:10.941Z,24.43
2022-11-23T12:25:11.769Z,26.13
2022-11-23T12:27:50.783Z,25.13
2022-11-23T12:30:26.059Z,26.27
2022-11-23T12:33:09.378Z,28.10
2022-11-23T12:36:08.377Z,26.17
2022-11-23T12:38:50.115Z,24.33
2022-11-23T12:41:32.313Z,23.83
2022-11-23T12:44:19.307Z,25.43
2022-11-23T12:46:56.069Z,24.20
2022-11-23T12:49:39.377Z,25.67
2022-11-23T12:52:34.145Z,25.40
2022-11-23T12:55:19.932Z,24.67
2022-11-23T12:57:56.911Z,24.93
2022-11-23T13:00:29.306Z,24.63
2022-11-23T13:03:34.646Z,24.83
2022-11-23T13:06:35.121Z,24.67
2022-11-23T13:09:23.806Z,23.23
2022-11-23T13:12:16.993Z,24.40
2022-11-23T13:14:54.338Z,23.17
2022-11-23T13:17:33.150Z,24.53
2022-11-23T13:20:31.775Z,24.10
2022-11-23T13:23:03.627Z,24.17
2022-11-23T13:25:35.015Z,25.23
2022-11-23T13:28:08.121Z,25.07
2022-11-23T13:31:13.533Z,25.90
2022-11-23T13:33:36.910Z,24.00
2022-11-23T13:36:16.799Z,24.63
2022-11-23T13:42:03.226Z,24.70
2022-11-23T13:44:34.421Z,25.07
2022-11-23T13:47:23.350Z,24.63
2022-11-23T13:49:55.084Z,25.97
2022-11-23T13:52:36.825Z,25.87
2022-11-23T13:55:19.753Z,25.97
2022-11-23T13:58:23.826Z,26.60
2022-11-23T14:00:56.538Z,25.37
2022-11-23T14:03:56.547Z,26.47
2022-11-23T14:06:45.418Z,24.70
2022-11-23T14:09:23.565Z,26.07
2022-11-23T14:12:03.688Z,24.33
2022-11-23T14:14:43.850Z,24.90
2022-11-23T14:17:45.394Z,26.77
2022-11-23T14:20:27.204Z,25.97
2022-11-23T14:23:25.963Z,25.63
2022-11-23T14:26:20.130Z,24.97
2022-11-23T14:29:01.514Z,25.13
2022-11-23T14:31:47.063Z,25.87
2022-11-23T14:34:25.478Z,26.23
2022-11-23T14:37:01.416Z,26.70
2022-11-23T14:39:48.757Z,27.90
2022-11-23T14:42:22.554Z,27.70
2022-11-23T14:44:52.843Z,27.53
2022-11-23T14:47:29.208Z,26.67
2022-11-23T14:49:58.859Z,26.90
2022-11-23T14:52:32.892Z,28.10
2022-11-23T14:55:08.196Z,26.17
2022-11-23T14:57:44.923Z,27.97
2022-11-23T15:00:45.435Z,25.90
2022-11-23T15:03:49.587Z,27.53
2022-11-23T15:06:12.949Z,26.57
2022-11-23T15:08:48.908Z,31.10
2022-11-23T15:11:22.723Z,32.53
2022-11-23T15:13:58.455Z,29.67
2022-11-23T15:16:28.067Z,30.20
2022-11-23T15:18:59.123Z,31.47
2022-11-23T15:21:29.838Z,29.67
2022-11-23T15:24:01.295Z,27.07
2022-11-23T15:26:48.007Z,27.90
2022-11-23T15:29:34.772Z,26.60
2022-11-23T15:32:29.339Z,26.37
2022-11-23T15:34:58.155Z,28.10
2022-11-23T15:37:30.231Z,29.80
2022-11-23T15:39:59.895Z,28.17
2022-11-23T15:42:32.953Z,26.73
2022-11-23T15:45:05.204Z,28.10
2022-11-23T15:47:35.135Z,30.40
2022-11-23T15:50:09.992Z,31.27
2022-11-23T15:52:40.245Z,29.80
2022-11-23T15:55:16.181Z,30.60
2022-11-23T15:57:45.905Z,32.10
2022-11-23T16:00:25.572Z,32.47
2022-11-23T16:02:57.962Z,30.13
2022-11-23T16:05:27.879Z,31.93
2022-11-23T16:07:58.900Z,32.83
2022-11-23T16:10:29.828Z,32.30
2022-11-23T16:13:00.866Z,38.23
2022-11-23T16:16:02.622Z,35.63
2022-11-23T16:18:35.481Z,33.93
2022-11-23T16:21:06.755Z,32.83
2022-11-23T16:23:45.341Z,32.47
2022-11-23T16:26:15.486Z,33.27
2022-11-23T16:28:52.291Z,32.00
2022-11-23T16:31:37.407Z,31.73
2022-11-23T16:34:12.301Z,31.13
2022-11-23T16:36:41.179Z,30.20
2022-11-23T16:39:10.424Z,29.73
2022-11-23T16:41:39.516Z,32.77
2022-11-23T16:44:08.937Z,31.23
2022-11-23T16:46:43.588Z,30.77
2022-11-23T16:49:20.004Z,32.73
2022-11-23T16:51:56.485Z,35.53
2022-11-23T16:54:26.645Z,32.40
2022-11-23T16:56:55.592Z,34.77
2022-11-23T16:59:26.780Z,34.87
2022-11-23T17:01:58.057Z,33.20
2022-11-23T17:04:27.445Z,31.73
2022-11-23T17:06:57.406Z,29.43
2022-11-23T17:09:26.270Z,32.30
2022-11-23T17:11:55.102Z,30.73
2022-11-23T17:14:30.233Z,30.90
2022-11-23T17:17:03.110Z,30.03
2022-11-23T17:19:34.404Z,30.00
2022-11-23T17:22:05.696Z,28.73
2022-11-23T17:24:34.898Z,28.87
2022-11-23T17:27:03.918Z,29.93
2022-11-23T17:29:37.785Z,29.47
2022-11-23T17:32:15.968Z,27.77
2022-11-23T17:34:49.113Z,27.57
2022-11-23T17:37:23.398Z,25.67
2022-11-23T17:39:54.693Z,29.20
2022-11-23T17:42:25.587Z,27.63
2022-11-23T17:44:55.408Z,29.07
2022-11-23T17:47:30.458Z,30.37
2022-11-23T17:50:07.766Z,28.47
2022-11-23T17:52:37.385Z,28.17
2022-11-23T17:55:08.109Z,28.83
2022-11-23T17:57:38.161Z,28.00
2022-11-23T18:00:09.562Z,27.70
2022-11-23T18:02:43.433Z,29.53
2022-11-23T18:05:19.723Z,27.20
2022-11-23T18:07:51.043Z,28.83
2022-11-23T18:10:22.403Z,29.97
2022-11-23T18:12:53.973Z,28.97
2022-11-23T18:15:26.808Z,26.50
2022-11-23T18:18:04.546Z,26.60
2022-11-23T18:20:34.833Z,33.33
2022-11-23T18:23:04.196Z,29.83
2022-11-23T18:25:33.349Z,29.60
2022-11-23T18:28:02.965Z,29.20
2022-11-23T18:30:32.226Z,28.23
2022-11-23T18:33:05.036Z,31.20
2022-11-23T18:35:34.402Z,27.47
2022-11-23T18:38:04.803Z,28.37
2022-11-23T18:40:40.388Z,27.50
2022-11-23T18:43:10.826Z,26.03
2022-11-23T18:45:40.508Z,25.23
2022-11-23T18:48:12.078Z,26.37
2022-11-23T18:50:41.488Z,26.10
2022-11-23T18:53:15.792Z,26.47
2022-11-23T18:55:45.611Z,27.13
2022-11-23T18:58:15.387Z,27.17
2022-11-23T19:00:45.738Z,25.43
2022-11-23T19:03:17.061Z,23.63
2022-11-23T19:05:47.064Z,25.27
2022-11-23T19:08:17.755Z,29.47
2022-11-23T19:10:50.768Z,33.20
2022-11-23T19:13:25.135Z,28.90
2022-11-23T19:15:54.420Z,27.67
2022-11-23T19:18:25.736Z,27.17
2022-11-23T19:20:56.225Z,27.00
2022-11-23T19:23:29.691Z,24.43
2022-11-23T19:26:04.795Z,27.07
2022-11-23T19:28:39.134Z,27.93
2022-11-23T19:31:13.147Z,32.73
2022-11-23T19:33:44.865Z,31.47
2022-11-23T19:36:16.388Z,31.37
2022-11-23T19:38:48.091Z,33.77
2022-11-23T19:41:17.769Z,31.27
2022-11-23T19:43:47.252Z,33.17
2022-11-23T19:46:18.027Z,30.97
2022-11-23T19:48:51.187Z,38.43
2022-11-23T19:51:24.696Z,40.13
2022-11-23T19:53:56.138Z,40.87
2022-11-23T19:56:29.710Z,46.80
2022-11-23T19:59:02.276Z,41.97
2022-11-23T20:01:34.428Z,43.63
2022-11-23T20:04:09.626Z,43.87
2022-11-23T20:06:45.300Z,41.10
2022-11-23T20:09:21.750Z,42.17
2022-11-23T20:11:52.077Z,41.03
2022-11-23T20:14:22.690Z,43.00
2022-11-23T20:16:52.515Z,43.47
2022-11-23T20:19:24.535Z,43.83
2022-11-23T20:21:54.528Z,40.90
2022-11-23T20:24:26.170Z,45.57
2022-11-23T20:26:55.636Z,47.00
2022-11-23T20:29:25.862Z,51.53
2022-11-23T20:31:55.570Z,61.40
2022-11-23T20:34:28.996Z,57.87
2022-11-23T20:36:58.449Z,55.00
2022-11-23T20:39:27.800Z,51.43
2022-11-23T20:41:59.163Z,47.47
2022-11-23T20:44:33.707Z,48.37
2022-11-23T20:47:04.336Z,47.40
2022-11-23T20:49:36.272Z,49.20
2022-11-23T20:52:06.503Z,47.87
2022-11-23T20:54:36.500Z,49.93
2022-11-23T20:57:06.230Z,52.00
2022-11-23T20:59:35.625Z,49.23
2022-11-23T21:02:05.245Z,50.33
2022-11-23T21:04:52.011Z,47.33
2022-11-23T21:07:23.994Z,45.83
2022-11-23T21:09:56.897Z,47.70
2022-11-23T21:12:49.118Z,60.43
2022-11-23T21:15:20.220Z,51.90
2022-11-23T21:17:49.990Z,49.57
2022-11-23T21:20:21.348Z,47.77
2022-11-23T21:22:50.995Z,44.30
2022-11-23T21:25:23.015Z,40.50
2022-11-23T21:27:52.633Z,40.67
2022-11-23T21:30:25.066Z,38.87
2022-11-23T21:32:54.460Z,41.80
2022-11-23T21:35:27.775Z,41.07
2022-11-23T21:37:58.664Z,52.20
2022-11-23T21:40:28.999Z,49.87
2022-11-23T21:42:59.242Z,48.80
2022-11-23T21:45:31.492Z,43.17
2022-11-23T21:48:01.440Z,43.83
2022-11-23T21:50:39.784Z,38.27
2022-11-23T21:53:09.565Z,49.30
2022-11-23T21:55:38.929Z,39.83
2022-11-23T21:58:08.618Z,37.37
2022-11-23T22:00:38.197Z,42.60
2022-11-23T22:03:09.052Z,38.23
2022-11-23T22:05:41.622Z,44.53
2022-11-23T22:08:28.628Z,34.40
2022-11-23T22:10:59.148Z,36.27
2022-11-23T22:13:31.532Z,36.23
2022-11-23T22:16:15.213Z,39.70
2022-11-23T22:18:45.413Z,40.90
2022-11-23T22:21:17.825Z,39.43
2022-11-23T22:23:48.355Z,34.93
2022-11-23T22:26:19.540Z,34.87
2022-11-23T22:28:50.304Z,34.40
2022-11-23T22:31:21.240Z,32.07
2022-11-23T22:33:51.500Z,29.17
2022-11-23T22:36:24.642Z,32.03
2022-11-23T22:39:01.272Z,30.20
2022-11-23T22:41:34.055Z,31.00
2022-11-23T22:44:04.074Z,30.43
2022-11-23T22:46:36.377Z,28.23
2022-11-23T22:49:06.365Z,30.13
2022-11-23T22:51:38.455Z,33.03
2022-11-23T22:54:07.825Z,34.90
2022-11-23T22:56:39.635Z,32.20
2022-11-23T22:59:09.403Z,31.10
2022-11-23T23:01:38.590Z,30.80
2022-11-23T23:04:08.921Z,32.83
2022-11-23T23:06:40.031Z,29.93
2022-11-23T23:09:10.210Z,29.63
2022-11-23T23:11:39.794Z,29.47
2022-11-23T23:14:09.698Z,31.07
2022-11-23T23:16:39.672Z,28.80
2022-11-23T23:19:08.706Z,29.97
2022-11-23T23:21:41.176Z,30.53
2022-11-23T23:24:11.641Z,27.80
2022-11-23T23:26:41.359Z,26.00
2022-11-23T23:29:11.506Z,31.40
2022-11-23T23:31:41.677Z,30.67
2022-11-23T23:34:11.306Z,35.27
2022-11-23T23:36:42.580Z,33.60
2022-11-23T23:39:13.173Z,33.57
2022-11-23T23:41:42.984Z,33.03
2022-11-23T23:44:12.625Z,35.73
2022-11-23T23:46:42.106Z,31.20
2022-11-23T23:49:13.085Z,28.17
2022-11-23T23:51:47.522Z,28.57
2022-11-23T23:54:20.168Z,30.13
2022-11-23T23:56:49.990Z,29.03
2022-11-23T23:59:19.728Z,31.40
